Nanning Wuxu Airport
ZGNN : now visible

Airfield :











YOU CAN JOIN US ON...

 
LOGIN :

Register | Disclaimer

   EN    FR    IT 

 









Legend :    VFR   Marginal VFR   IFR   Intensive IFR   Very Intensive IFR
Visi :
Ceiling :
>= 8 km
>= 3000ft
5 to 8 km
1000 to 3000 ft
1500m to 5 km
500 to 1000 ft
800 to 1500m
200 to 500 ft
< 800m
< 200 ft
Symbols :   Thunderstorms  Fog  Heavy snow  Heavy precipitations  Wind > 20 kt






- Airport Elevation : 421 ft
- IATA code : NNG


ZGNN - Nanning Wuxu

CURRENT METAR :
  • 250900Z 34004MPS 9999 SCT008 OVC033 11/09 Q1017 NOSIG

EXPIRED METARs :
  • 250800Z 34004MPS 5000 -SHRA SCT005 FEW023CB BKN026 10/10 Q1018 BECMG TL0820 -TSRA
  • 250700Z 36004MPS 5000 -RA SCT005 OVC026 11/10 Q1017 NOSIG

TAF TAF ZGNN
Valid from the 25 at 06:00 until the 26 at 06:00 UTC


250308Z 2506/2606 03004MPS 7000 SCT010 BKN033 TX15/2507Z TN10/2522Z
TEMPO 2506/2512 2200 TSRA SCT007 FEW026CB BKN030
TEMPO 2513/2519 2200 TSRA SCT007 FEW026CB BKN030



MET'MAP, your aeronautical weather chart ! - Copyright ORBIFLY December 2007 - Disclaimer

ORBIFLY MET'MAP TEAM :

Programming & Development : Alexandra Zaïnal
Concept & original design : Baudouin d'Aumeries
Assistance for programming : Marc-Olivier Méhu
Technical & hardware support : Manuel Goepfert

Contact : metmap@orbifly.com




SOURCES & CREDITS :

   NOAA       Earth
Advisory